Time;durP1;ratioP1;P1;durP2;ratioP2;P2;SDS_P1;SDS_P2;PMS_P1;PMS_P2;Temp;Humidity;BMP_temperature;BMP_pressure;BME280_temperature;BME280_humidity;BME280_pressure;Samples;Min_cycle;Max_cycle;Signal;HPM_P1;HPM_P2
2021/11/11 00:00:29;;;;;;;14.73;9.65;;;12.60;99.90;;;;;;5094345;28;20067;-79
2021/11/11 00:02:56;;;;;;;18.23;8.88;;;12.60;99.90;;;;;;5083492;28;20024;-79
2021/11/11 00:05:22;;;;;;;15.55;8.48;;;12.60;99.90;;;;;;5094800;28;20021;-79
2021/11/11 00:07:48;;;;;;;11.88;9.00;;;12.60;99.90;;;;;;5096423;28;20028;-88
2021/11/11 00:10:15;;;;;;;16.15;8.90;;;12.60;99.90;;;;;;5095620;28;20016;-89
2021/11/11 00:12:41;;;;;;;14.32;9.20;;;12.60;99.90;;;;;;5089188;28;20059;-83
2021/11/11 00:15:11;;;;;;;13.73;8.88;;;12.60;99.90;;;;;;5088689;28;20024;-88
2021/11/11 00:17:37;;;;;;;15.25;8.45;;;12.60;99.90;;;;;;5096005;28;20472;-81
2021/11/11 00:20:04;;;;;;;12.13;9.00;;;12.60;99.90;;;;;;5095783;28;20059;-81
2021/11/11 00:22:30;;;;;;;14.77;9.07;;;12.60;99.90;;;;;;5081649;28;20033;-80
2021/11/11 00:24:55;;;;;;;14.68;8.48;;;12.50;99.90;;;;;;5095815;28;20533;-88
2021/11/11 00:27:21;;;;;;;14.15;9.18;;;12.50;99.90;;;;;;5094536;28;20489;-87
2021/11/11 00:29:47;;;;;;;12.38;8.55;;;12.50;99.90;;;;;;5095718;28;20442;-89
2021/11/11 00:32:13;;;;;;;12.25;8.57;;;12.40;99.90;;;;;;5093725;28;20024;-79
2021/11/11 00:34:39;;;;;;;15.60;9.52;;;12.40;99.90;;;;;;5074176;28;20024;-79
2021/11/11 00:37:05;;;;;;;14.15;8.43;;;12.40;99.90;;;;;;5095374;28;20461;-79
2021/11/11 00:39:31;;;;;;;15.18;8.90;;;12.40;99.90;;;;;;5095786;28;20026;-82
2021/11/11 00:41:56;;;;;;;14.95;9.35;;;12.30;99.90;;;;;;5091354;28;20106;-81
2021/11/11 00:44:22;;;;;;;14.45;8.57;;;12.30;99.90;;;;;;5079617;28;20016;-88
2021/11/11 00:46:48;;;;;;;11.93;8.93;;;12.30;99.90;;;;;;5074818;28;20469;-83
2021/11/11 00:49:14;;;;;;;17.33;9.10;;;12.30;99.90;;;;;;5088679;28;20087;-89
2021/11/11 00:51:40;;;;;;;12.48;8.85;;;12.30;99.90;;;;;;5095278;28;20052;-86
2021/11/11 00:54:07;;;;;;;13.40;9.20;;;12.30;99.90;;;;;;5095176;28;20503;-83
2021/11/11 00:56:34;;;;;;;17.45;8.98;;;12.30;99.90;;;;;;5091257;28;20025;-80
2021/11/11 00:59:00;;;;;;;20.17;9.32;;;12.30;99.90;;;;;;5084617;28;20123;-85
2021/11/11 01:01:30;;;;;;;15.07;9.63;;;12.30;99.90;;;;;;5096023;28;20491;-79
2021/11/11 01:03:57;;;;;;;13.07;8.85;;;12.30;99.90;;;;;;5096898;28;20111;-87
2021/11/11 01:06:26;;;;;;;13.30;9.35;;;12.20;99.90;;;;;;5075221;28;20017;-81
2021/11/11 01:08:52;;;;;;;16.67;10.13;;;12.30;99.90;;;;;;5094662;28;20023;-82
2021/11/11 01:11:18;;;;;;;13.68;8.88;;;12.20;99.90;;;;;;5094786;28;20040;-88
2021/11/11 01:13:44;;;;;;;16.15;9.15;;;12.20;99.90;;;;;;5094712;28;20095;-82
2021/11/11 01:16:09;;;;;;;13.35;8.63;;;12.20;99.90;;;;;;5094786;28;20056;-84
2021/11/11 01:18:35;;;;;;;17.45;10.05;;;12.20;99.90;;;;;;5076564;28;20023;-81
2021/11/11 01:21:01;;;;;;;15.80;9.57;;;12.20;99.90;;;;;;5094480;28;20031;-87
2021/11/11 01:23:27;;;;;;;12.15;9.15;;;12.20;99.90;;;;;;5079722;28;20070;-89
2021/11/11 01:25:53;;;;;;;16.25;8.57;;;12.20;99.90;;;;;;5093266;28;20384;-86
2021/11/11 01:28:18;;;;;;;12.18;9.20;;;12.10;99.90;;;;;;5095148;28;20075;-88
2021/11/11 01:30:44;;;;;;;14.40;9.80;;;12.10;99.90;;;;;;5077828;28;20012;-88
2021/11/11 01:33:12;;;;;;;17.55;9.82;;;12.10;99.90;;;;;;5094060;28;20028;-80
2021/11/11 01:35:38;;;;;;;14.57;9.98;;;12.10;99.90;;;;;;5092802;28;20025;-86
2021/11/11 01:38:04;;;;;;;15.05;9.25;;;12.10;99.90;;;;;;5092147;28;20048;-80
2021/11/11 01:40:30;;;;;;;15.40;10.48;;;12.10;99.90;;;;;;5093193;28;20051;-86
2021/11/11 01:43:00;;;;;;;13.57;9.32;;;12.10;99.90;;;;;;5076306;28;20024;-85
2021/11/11 01:45:42;;;;;;;14.52;9.30;;;12.10;99.90;;;;;;5083042;28;20499;-85
2021/11/11 01:48:12;;;;;;;14.70;9.57;;;12.00;99.90;;;;;;5093925;28;20510;-79
2021/11/11 01:50:39;;;;;;;14.13;9.38;;;12.00;99.90;;;;;;5084960;28;20036;-88
2021/11/11 01:53:12;;;;;;;15.23;10.45;;;12.00;99.90;;;;;;5092446;28;20024;-85
2021/11/11 01:55:42;;;;;;;15.77;9.73;;;12.00;99.90;;;;;;5066471;28;20138;-81
2021/11/11 01:58:08;;;;;;;16.55;9.68;;;12.00;99.90;;;;;;5090299;28;20024;-87
2021/11/11 02:00:45;;;;;;;17.95;9.98;;;12.00;99.90;;;;;;5093657;28;20016;-88
2021/11/11 02:03:11;;;;;;;19.00;9.80;;;12.00;99.90;;;;;;5093660;28;20069;-79
2021/11/11 02:05:37;;;;;;;17.98;9.73;;;12.00;99.90;;;;;;5088123;28;20035;-87
2021/11/11 02:08:04;;;;;;;20.00;9.75;;;12.00;99.90;;;;;;5087720;28;20036;-89
2021/11/11 02:10:33;;;;;;;13.23;9.38;;;12.00;99.90;;;;;;5093756;28;20020;-79
2021/11/11 02:12:59;;;;;;;16.33;9.57;;;12.00;99.90;;;;;;5093797;28;20131;-84
2021/11/11 02:15:25;;;;;;;14.20;8.90;;;12.00;99.90;;;;;;5093509;28;20461;-79
2021/11/11 02:17:51;;;;;;;30.23;10.30;;;11.90;99.90;;;;;;5083843;28;20043;-85
2021/11/11 02:20:29;;;;;;;15.52;9.25;;;12.00;99.90;;;;;;5088872;28;20020;-81
2021/11/11 02:22:57;;;;;;;21.00;9.95;;;12.00;99.90;;;;;;5093538;28;20024;-89
2021/11/11 02:25:25;;;;;;;18.80;9.32;;;11.90;99.90;;;;;;5091958;28;20078;-84
2021/11/11 02:27:54;;;;;;;12.90;8.40;;;11.90;99.90;;;;;;5093262;28;20060;-87
2021/11/11 02:30:22;;;;;;;19.45;8.98;;;12.00;99.90;;;;;;5093193;28;20069;-82
2021/11/11 02:32:48;;;;;;;15.70;8.65;;;12.00;99.90;;;;;;5079280;28;20396;-79
2021/11/11 02:35:16;;;;;;;13.75;8.98;;;12.00;99.90;;;;;;5093253;28;20081;-81
2021/11/11 02:37:42;;;;;;;13.00;9.32;;;12.00;99.90;;;;;;5092983;28;20046;-79
2021/11/11 02:40:14;;;;;;;20.85;9.77;;;12.00;99.90;;;;;;5093264;28;20024;-79
2021/11/11 02:42:41;;;;;;;17.95;10.30;;;12.00;99.90;;;;;;5093120;28;20040;-89
2021/11/11 02:45:10;;;;;;;15.65;9.32;;;12.00;99.90;;;;;;5093172;28;20019;-79
2021/11/11 02:47:36;;;;;;;16.73;9.02;;;12.00;99.90;;;;;;5091383;28;20046;-79
2021/11/11 02:50:04;;;;;;;21.05;9.52;;;11.90;99.90;;;;;;5091578;28;20531;-80
2021/11/11 02:52:29;;;;;;;12.93;9.35;;;12.00;99.90;;;;;;5091620;28;20165;-80
2021/11/11 02:54:55;;;;;;;15.18;9.48;;;11.90;99.90;;;;;;5090396;28;20112;-80
2021/11/11 02:57:33;;;;;;;15.30;9.60;;;11.90;99.90;;;;;;5082020;28;20024;-79
2021/11/11 03:00:08;;;;;;;17.85;10.15;;;11.90;99.90;;;;;;5091636;28;20016;-88
2021/11/11 03:02:35;;;;;;;20.58;9.52;;;11.90;99.90;;;;;;5086796;28;20115;-80
2021/11/11 03:05:03;;;;;;;13.38;8.82;;;11.90;99.90;;;;;;5071621;28;20044;-87
2021/11/11 03:07:28;;;;;;;12.70;9.20;;;11.90;99.90;;;;;;5081641;28;20023;-79
2021/11/11 03:09:54;;;;;;;12.68;9.30;;;11.90;99.90;;;;;;5071312;28;20043;-80
2021/11/11 03:12:21;;;;;;;13.27;8.38;;;11.90;99.90;;;;;;5071229;28;20405;-80
2021/11/11 03:14:49;;;;;;;18.65;10.00;;;11.90;99.90;;;;;;5072460;28;20009;-83
2021/11/11 03:17:15;;;;;;;12.25;9.02;;;11.90;99.90;;;;;;5072393;28;20063;-82
2021/11/11 03:19:41;;;;;;;13.02;9.05;;;11.90;99.90;;;;;;5072634;28;20053;-89
2021/11/11 03:22:15;;;;;;;17.42;8.98;;;11.90;99.90;;;;;;5072465;28;20031;-85
2021/11/11 03:24:42;;;;;;;13.45;8.70;;;12.00;99.90;;;;;;5063505;28;20385;-80
2021/11/11 03:27:09;;;;;;;14.55;9.07;;;12.00;99.90;;;;;;5072627;28;20423;-81
2021/11/11 03:29:35;;;;;;;15.43;9.02;;;11.90;99.90;;;;;;5077323;28;20377;-83
2021/11/11 03:32:01;;;;;;;15.00;9.02;;;11.90;99.90;;;;;;5078176;28;20043;-83
2021/11/11 03:34:27;;;;;;;11.57;8.13;;;11.90;99.90;;;;;;5076484;28;20017;-82
2021/11/11 03:36:55;;;;;;;18.45;9.63;;;11.90;99.90;;;;;;5076550;28;20039;-88
2021/11/11 03:39:24;;;;;;;18.55;9.27;;;11.90;99.90;;;;;;5076118;28;20020;-82
2021/11/11 03:41:52;;;;;;;14.75;9.05;;;11.90;99.90;;;;;;5075445;28;20107;-79
2021/11/11 03:44:19;;;;;;;11.95;8.60;;;11.90;99.90;;;;;;5075442;28;20028;-81
2021/11/11 03:46:47;;;;;;;16.80;9.65;;;11.90;99.90;;;;;;5075918;28;20036;-82
2021/11/11 03:49:13;;;;;;;15.43;9.25;;;11.90;99.90;;;;;;5076208;28;20111;-81
2021/11/11 03:51:40;;;;;;;12.88;9.50;;;11.90;99.90;;;;;;5076003;28;20032;-86
2021/11/11 03:54:06;;;;;;;17.20;9.55;;;11.90;99.90;;;;;;5076076;28;20028;-82
2021/11/11 03:56:36;;;;;;;14.80;9.65;;;11.90;99.90;;;;;;5076024;28;20020;-79
2021/11/11 03:59:03;;;;;;;14.32;8.88;;;11.90;99.90;;;;;;5076120;28;20081;-85
2021/11/11 04:01:29;;;;;;;14.38;8.88;;;11.90;99.90;;;;;;5075836;28;20021;-89
2021/11/11 04:03:55;;;;;;;12.95;8.50;;;11.90;99.90;;;;;;5075937;28;20027;-86
2021/11/11 04:06:21;;;;;;;15.60;9.75;;;11.90;99.90;;;;;;5075775;28;20385;-88
2021/11/11 04:08:47;;;;;;;15.00;9.02;;;11.90;99.90;;;;;;5076391;28;20484;-79
2021/11/11 04:11:13;;;;;;;17.17;9.52;;;11.90;99.90;;;;;;5074729;28;20044;-79
2021/11/11 04:13:39;;;;;;;16.33;9.10;;;11.90;99.90;;;;;;5075970;28;20512;-80
2021/11/11 04:16:05;;;;;;;15.60;9.40;;;11.90;99.90;;;;;;5075849;28;20039;-88
2021/11/11 04:18:31;;;;;;;19.73;9.50;;;11.80;99.90;;;;;;5074754;28;20443;-79
2021/11/11 04:20:57;;;;;;;14.07;9.48;;;11.80;99.90;;;;;;5075984;28;20016;-81
2021/11/11 04:23:24;;;;;;;17.90;9.65;;;11.80;99.90;;;;;;5075511;28;20346;-88
2021/11/11 04:28:22;;;;;;;14.30;9.48;;;11.70;99.90;;;;;;5075356;28;20021;-87
2021/11/11 04:30:51;;;;;;;17.75;10.23;;;11.70;99.90;;;;;;5075467;28;20156;-80
2021/11/11 04:33:18;;;;;;;16.80;9.85;;;11.70;99.90;;;;;;5075059;28;20056;-79
2021/11/11 04:35:48;;;;;;;26.85;9.48;;;11.70;99.90;;;;;;5075434;28;20453;-88
2021/11/11 04:44:07;;;;;;;19.35;10.60;;;11.70;99.90;;;;;;5050444;28;20110;-88
2021/11/11 05:04:59;;;;;;;16.25;9.98;;;11.50;99.90;;;;;;5074661;28;20106;-87
2021/11/11 05:07:25;;;;;;;18.60;9.85;;;11.50;99.90;;;;;;5074858;28;20457;-88
2021/11/11 05:09:50;;;;;;;22.13;10.40;;;11.50;99.90;;;;;;5074751;28;20031;-85
2021/11/11 05:12:17;;;;;;;14.57;9.68;;;11.50;99.90;;;;;;5070181;28;20405;-80
2021/11/11 05:14:42;;;;;;;21.50;10.27;;;11.50;99.90;;;;;;5074222;28;20484;-80
2021/11/11 05:17:08;;;;;;;18.75;9.20;;;11.60;99.90;;;;;;5071713;28;20039;-80
2021/11/11 05:19:34;;;;;;;29.70;9.75;;;11.50;99.90;;;;;;5074791;28;20020;-79
2021/11/11 05:22:00;;;;;;;20.92;10.10;;;11.60;99.90;;;;;;5074564;28;20028;-82
2021/11/11 05:24:25;;;;;;;22.35;10.80;;;11.60;99.90;;;;;;5074316;28;20017;-88
2021/11/11 05:26:51;;;;;;;24.90;10.50;;;11.50;99.90;;;;;;5074107;28;20028;-88
2021/11/11 05:29:17;;;;;;;22.13;10.75;;;11.50;99.90;;;;;;5074434;28;20020;-88
2021/11/11 05:31:43;;;;;;;20.33;11.23;;;11.50;99.90;;;;;;5074178;28;20443;-83
2021/11/11 05:34:09;;;;;;;20.40;9.98;;;11.50;99.90;;;;;;5074199;28;20020;-80
2021/11/11 05:36:35;;;;;;;26.88;10.75;;;11.50;99.90;;;;;;5074219;28;20031;-79
2021/11/11 05:39:00;;;;;;;24.45;11.35;;;11.50;99.90;;;;;;5088205;28;20392;-80
2021/11/11 05:41:26;;;;;;;27.60;11.20;;;11.50;99.90;;;;;;5073534;28;20393;-88
2021/11/11 05:43:52;;;;;;;16.83;10.48;;;11.60;99.90;;;;;;5073907;28;20050;-80
2021/11/11 05:46:17;;;;;;;21.50;10.57;;;11.60;99.90;;;;;;5074106;28;20031;-89
2021/11/11 05:48:43;;;;;;;26.65;10.82;;;11.50;99.90;;;;;;5074267;28;20020;-80
2021/11/11 05:51:09;;;;;;;15.93;11.13;;;11.50;99.90;;;;;;5075746;28;20400;-88
2021/11/11 05:53:34;;;;;;;19.50;10.75;;;11.50;99.90;;;;;;5068526;28;20086;-84
2021/11/11 05:56:00;;;;;;;32.70;11.25;;;11.40;99.90;;;;;;5072323;28;20474;-80
2021/11/11 05:58:26;;;;;;;18.25;10.68;;;11.40;99.90;;;;;;5076764;28;20025;-81
2021/11/11 06:00:51;;;;;;;24.55;10.90;;;11.50;99.90;;;;;;5072629;28;20024;-87
2021/11/11 06:03:17;;;;;;;23.85;10.60;;;11.50;99.90;;;;;;5073956;28;20389;-80
2021/11/11 06:05:43;;;;;;;20.35;10.65;;;11.60;99.90;;;;;;5074115;28;20044;-85
2021/11/11 06:08:09;;;;;;;20.90;9.65;;;11.60;99.90;;;;;;5074428;28;20046;-88
2021/11/11 06:10:35;;;;;;;19.73;10.43;;;11.70;99.90;;;;;;5070008;28;20037;-81
2021/11/11 06:13:01;;;;;;;21.83;10.88;;;11.80;99.90;;;;;;5070839;28;20115;-87
2021/11/11 06:15:27;;;;;;;17.13;10.90;;;11.80;99.90;;;;;;5073595;28;20091;-80
2021/11/11 06:17:55;;;;;;;19.58;10.65;;;11.90;99.90;;;;;;5072352;28;20081;-82
2021/11/11 06:20:30;;;;;;;27.15;11.27;;;11.90;99.90;;;;;;5072289;28;20059;-81
2021/11/11 06:22:56;;;;;;;22.27;12.05;;;12.00;99.90;;;;;;5073156;28;20020;-82
2021/11/11 06:25:22;;;;;;;23.33;11.95;;;12.00;99.90;;;;;;5072771;28;20427;-81
2021/11/11 06:27:48;;;;;;;23.92;10.57;;;12.10;99.90;;;;;;5071219;28;20028;-81
2021/11/11 06:30:13;;;;;;;24.73;11.20;;;12.30;99.90;;;;;;5087052;28;20016;-82
2021/11/11 06:32:39;;;;;;;19.83;11.30;;;12.60;99.90;;;;;;5091846;28;20036;-87
2021/11/11 06:35:07;;;;;;;18.27;10.38;;;12.90;99.90;;;;;;5090315;28;20024;-83
2021/11/11 06:37:34;;;;;;;28.75;11.35;;;13.10;99.90;;;;;;5065237;28;20035;-86
2021/11/11 06:40:00;;;;;;;35.45;11.05;;;13.40;99.90;;;;;;5091338;28;20099;-84
2021/11/11 06:42:25;;;;;;;32.45;11.38;;;13.70;99.90;;;;;;5085400;28;20489;-79
2021/11/11 06:44:51;;;;;;;26.52;10.60;;;14.00;99.90;;;;;;5082324;28;20090;-80
2021/11/11 06:47:17;;;;;;;24.73;9.65;;;14.40;99.90;;;;;;5086242;28;20150;-79
2021/11/11 06:49:42;;;;;;;19.98;10.07;;;14.90;99.90;;;;;;5087793;28;20106;-79
2021/11/11 06:52:08;;;;;;;25.60;9.18;;;15.40;99.90;;;;;;5083672;28;20137;-79
2021/11/11 06:54:35;;;;;;;17.80;10.45;;;15.90;99.90;;;;;;5088168;28;20027;-78
2021/11/11 06:57:00;;;;;;;30.13;8.70;;;16.20;99.90;;;;;;5082305;28;20139;-79
2021/11/11 06:59:26;;;;;;;14.77;8.07;;;16.70;99.90;;;;;;5079932;28;20099;-80
2021/11/11 07:01:52;;;;;;;28.73;8.65;;;17.20;99.90;;;;;;5087180;28;20121;-81
2021/11/11 07:04:17;;;;;;;19.27;8.52;;;17.80;99.90;;;;;;5083887;28;20019;-82
2021/11/11 07:06:43;;;;;;;21.50;8.48;;;18.40;99.90;;;;;;5088282;28;20025;-81
2021/11/11 07:09:09;;;;;;;18.08;9.25;;;18.90;99.90;;;;;;5080361;28;20519;-81
2021/11/11 07:11:35;;;;;;;15.90;8.93;;;19.40;99.90;;;;;;5088033;28;20090;-78
2021/11/11 07:14:01;;;;;;;23.17;8.50;;;19.90;99.90;;;;;;5085740;28;20059;-81
2021/11/11 07:16:27;;;;;;;23.02;7.43;;;20.30;99.90;;;;;;5074907;28;20028;-82
2021/11/11 07:18:53;;;;;;;21.17;7.60;;;20.60;99.90;;;;;;5072494;28;20403;-80
2021/11/11 07:21:18;;;;;;;15.15;7.28;;;21.20;99.90;;;;;;5071185;28;20103;-82
2021/11/11 07:23:44;;;;;;;29.77;9.15;;;21.80;99.90;;;;;;5072329;28;20385;-82
2021/11/11 07:26:10;;;;;;;24.58;8.18;;;22.30;99.90;;;;;;5071738;28;20113;-79
2021/11/11 07:28:36;;;;;;;20.10;8.25;;;22.90;99.90;;;;;;5071504;28;20029;-80
2021/11/11 07:31:02;;;;;;;15.65;7.55;;;23.40;99.90;;;;;;5071406;28;20070;-79
2021/11/11 07:33:27;;;;;;;21.75;7.43;;;23.80;99.90;;;;;;5072280;28;20404;-80
2021/11/11 07:35:53;;;;;;;21.60;9.73;;;24.00;99.90;;;;;;5072343;28;20092;-79
2021/11/11 07:38:20;;;;;;;16.73;7.78;;;24.40;99.90;;;;;;5070928;28;20021;-82
2021/11/11 07:40:46;;;;;;;16.35;7.45;;;24.60;99.90;;;;;;5071862;28;20016;-81
2021/11/11 07:43:12;;;;;;;33.70;7.55;;;24.70;99.90;;;;;;5071614;28;20488;-80
2021/11/11 07:45:38;;;;;;;16.65;6.95;;;24.80;99.90;;;;;;5071540;28;20028;-79
2021/11/11 07:48:04;;;;;;;24.15;8.13;;;25.10;99.90;;;;;;5072140;28;20103;-79
2021/11/11 07:50:42;;;;;;;21.23;7.47;;;25.60;99.90;;;;;;5067909;28;20106;-78
2021/11/11 07:53:10;;;;;;;21.38;7.70;;;26.00;99.90;;;;;;5064011;28;20171;-79
2021/11/11 07:55:38;;;;;;;21.08;7.47;;;26.40;99.90;;;;;;5066464;28;20021;-79
2021/11/11 07:58:04;;;;;;;21.92;7.75;;;26.60;99.90;;;;;;5072106;28;20040;-80
2021/11/11 08:00:31;;;;;;;18.83;6.70;;;26.60;99.90;;;;;;5072194;28;20107;-79
2021/11/11 08:02:56;;;;;;;19.38;7.32;;;26.80;99.90;;;;;;5071078;28;20020;-81
2021/11/11 08:05:22;;;;;;;24.00;7.05;;;27.10;99.40;;;;;;5072113;28;20033;-78
2021/11/11 08:07:49;;;;;;;11.77;6.00;;;27.40;99.10;;;;;;5071555;28;20048;-79
2021/11/11 08:10:20;;;;;;;13.05;6.10;;;27.40;99.00;;;;;;5071825;28;20028;-83
2021/11/11 08:12:46;;;;;;;11.60;6.37;;;26.90;98.80;;;;;;5071063;28;20464;-80
2021/11/11 08:15:14;;;;;;;14.50;6.57;;;26.00;99.40;;;;;;5068277;28;20025;-78
2021/11/11 08:17:39;;;;;;;26.40;6.18;;;25.30;99.90;;;;;;5075572;28;20274;-80
2021/11/11 08:20:06;;;;;;;17.73;7.50;;;24.80;99.90;;;;;;5075257;28;20468;-79
2021/11/11 08:22:32;;;;;;;17.02;6.60;;;24.50;99.90;;;;;;5075534;28;20025;-79
2021/11/11 08:24:59;;;;;;;36.85;7.15;;;24.10;99.90;;;;;;5075728;28;20025;-79
2021/11/11 08:27:25;;;;;;;12.45;7.07;;;23.70;99.90;;;;;;5078304;28;20041;-79
2021/11/11 08:29:52;;;;;;;20.70;7.22;;;23.40;99.90;;;;;;5074610;28;20025;-78
2021/11/11 08:32:19;;;;;;;26.08;7.50;;;23.20;99.90;;;;;;5074314;28;20111;-80
2021/11/11 08:34:46;;;;;;;19.52;7.03;;;23.10;99.90;;;;;;5071776;28;20028;-79
2021/11/11 08:37:12;;;;;;;17.70;7.80;;;23.00;99.90;;;;;;5083746;28;20357;-79
2021/11/11 08:39:39;;;;;;;18.95;8.18;;;23.10;99.90;;;;;;5083171;28;20422;-79
2021/11/11 08:42:07;;;;;;;21.00;9.32;;;23.20;99.90;;;;;;5081954;28;20112;-83
2021/11/11 08:44:33;;;;;;;30.42;9.10;;;23.40;99.90;;;;;;5074783;28;20029;-78
2021/11/11 08:46:58;;;;;;;29.85;10.68;;;23.80;99.90;;;;;;5080896;28;20044;-80
2021/11/11 08:49:24;;;;;;;29.17;11.80;;;24.10;99.90;;;;;;5085832;28;20642;-79
2021/11/11 08:51:52;;;;;;;28.38;12.05;;;24.00;99.90;;;;;;5080663;28;20037;-84
2021/11/11 08:54:20;;;;;;;36.38;13.43;;;24.10;99.90;;;;;;5084524;28;20044;-78
2021/11/11 08:56:50;;;;;;;36.55;13.25;;;24.20;99.90;;;;;;5080469;28;20147;-78
2021/11/11 08:59:23;;;;;;;25.85;12.20;;;24.40;99.90;;;;;;5083104;28;20119;-79
2021/11/11 09:01:50;;;;;;;26.73;12.70;;;24.70;99.90;;;;;;5066219;28;20445;-79
2021/11/11 09:04:18;;;;;;;32.63;13.10;;;25.10;99.90;;;;;;5066225;28;20101;-79
2021/11/11 09:06:45;;;;;;;32.00;11.93;;;25.50;99.90;;;;;;5056241;28;20393;-82
2021/11/11 09:09:12;;;;;;;22.23;10.95;;;26.00;99.90;;;;;;5056234;28;20098;-82
2021/11/11 09:11:39;;;;;;;32.83;11.38;;;27.40;99.90;;;;;;5063498;28;20041;-85
2021/11/11 09:14:05;;;;;;;22.60;11.77;;;29.90;98.10;;;;;;5061413;28;20108;-81
2021/11/11 09:16:32;;;;;;;25.88;10.15;;;32.10;95.40;;;;;;5070520;28;20482;-80
2021/11/11 09:18:57;;;;;;;26.70;10.82;;;33.90;92.40;;;;;;5061977;28;20021;-82
2021/11/11 09:21:24;;;;;;;19.17;9.52;;;35.40;88.90;;;;;;5057035;28;20028;-81
2021/11/11 09:23:50;;;;;;;22.92;10.15;;;36.40;83.50;;;;;;5061045;28;20074;-82
2021/11/11 09:26:17;;;;;;;23.80;9.70;;;37.00;79.80;;;;;;5061517;28;20021;-83
2021/11/11 09:28:44;;;;;;;21.55;8.90;;;37.80;75.80;;;;;;5061156;28;20376;-78
2021/11/11 09:31:11;;;;;;;20.05;9.60;;;38.10;73.40;;;;;;5052071;28;20473;-78
2021/11/11 09:33:39;;;;;;;20.65;8.23;;;38.70;70.90;;;;;;5061302;28;20024;-79
2021/11/11 09:36:05;;;;;;;21.58;8.32;;;39.30;69.00;;;;;;5051998;28;20021;-80
2021/11/11 09:38:31;;;;;;;16.33;7.78;;;39.80;66.60;;;;;;5055601;28;20032;-80
2021/11/11 09:40:57;;;;;;;18.73;7.70;;;40.10;64.30;;;;;;5056810;28;20025;-80
2021/11/11 09:43:24;;;;;;;13.60;6.90;;;40.40;62.80;;;;;;5064302;28;20046;-81
2021/11/11 09:45:50;;;;;;;14.25;6.25;;;40.60;61.30;;;;;;5063514;28;20085;-80
2021/11/11 09:48:17;;;;;;;18.05;6.80;;;41.10;60.40;;;;;;5066481;28;20021;-81
2021/11/11 09:50:45;;;;;;;16.15;5.47;;;41.30;59.50;;;;;;5067194;28;20029;-81
2021/11/11 09:53:15;;;;;;;18.20;6.15;;;41.50;58.80;;;;;;5067664;28;20127;-82
2021/11/11 09:58:39;;;;;;;16.73;6.45;;;41.00;58.30;;;;;;5067055;28;20051;-84
2021/11/11 10:01:11;;;;;;;11.65;5.65;;;41.10;58.20;;;;;;5069920;28;20020;-79
2021/11/11 10:03:42;;;;;;;19.90;5.47;;;41.10;58.20;;;;;;5065909;28;20098;-80
2021/11/11 10:06:13;;;;;;;16.02;5.80;;;41.50;57.50;;;;;;5059955;28;20020;-81
2021/11/11 10:08:44;;;;;;;15.02;5.45;;;42.00;56.70;;;;;;5065890;28;20430;-81
2021/11/11 10:11:24;;;;;;;15.98;5.57;;;42.30;56.20;;;;;;5064579;28;20057;-82
2021/11/11 10:13:59;;;;;;;13.95;5.68;;;42.50;56.20;;;;;;5058305;28;20036;-83
2021/11/11 10:16:25;;;;;;;10.70;5.13;;;42.50;55.30;;;;;;5059710;28;20020;-80
2021/11/11 10:18:58;;;;;;;11.35;4.75;;;42.50;55.20;;;;;;5058128;28;20027;-81
2021/11/11 10:21:31;;;;;;;11.13;5.15;;;42.40;54.70;;;;;;5062257;28;20373;-82
2021/11/11 10:24:11;;;;;;;12.23;5.18;;;41.90;55.40;;;;;;5065741;28;20016;-81
2021/11/11 10:26:40;;;;;;;10.57;4.68;;;42.00;55.20;;;;;;5055500;28;20521;-81
2021/11/11 10:29:18;;;;;;;15.73;5.18;;;41.80;55.40;;;;;;5060208;28;20024;-81
2021/11/11 10:31:57;;;;;;;9.93;4.68;;;41.30;56.10;;;;;;5068958;28;20047;-82
2021/11/11 10:34:23;;;;;;;8.27;4.88;;;41.10;56.20;;;;;;5062659;28;20021;-80
2021/11/11 10:36:52;;;;;;;14.75;5.18;;;41.30;55.50;;;;;;5053347;28;20369;-82
2021/11/11 10:39:28;;;;;;;10.87;4.50;;;41.30;55.10;;;;;;5050721;28;20025;-82
2021/11/11 10:41:57;;;;;;;9.15;4.60;;;41.40;54.70;;;;;;5056872;28;20047;-79
2021/11/11 10:44:32;;;;;;;9.95;4.93;;;41.40;54.80;;;;;;5067368;28;20052;-79
2021/11/11 10:47:00;;;;;;;15.32;5.45;;;41.50;54.30;;;;;;5061255;28;20079;-82
2021/11/11 10:49:30;;;;;;;9.93;4.80;;;41.50;54.40;;;;;;5068740;28;20404;-82
2021/11/11 10:52:16;;;;;;;14.30;5.20;;;41.50;54.70;;;;;;5051660;28;20040;-82
2021/11/11 10:55:07;;;;;;;14.10;4.88;;;41.50;54.70;;;;;;5055772;28;20017;-83
2021/11/11 10:57:49;;;;;;;8.27;4.82;;;40.80;55.50;;;;;;5054170;28;20082;-82
2021/11/11 11:00:23;;;;;;;10.70;5.00;;;39.30;56.50;;;;;;5064646;28;20036;-81
2021/11/11 11:02:56;;;;;;;15.00;6.35;;;36.90;59.00;;;;;;5061774;28;20086;-81
2021/11/11 11:05:26;;;;;;;11.75;5.85;;;34.50;62.00;;;;;;5063378;28;20190;-80
2021/11/11 11:08:07;;;;;;;14.45;6.13;;;32.30;65.70;;;;;;5056525;28;20039;-81
2021/11/11 11:10:35;;;;;;;26.63;6.63;;;30.40;69.40;;;;;;5052290;28;20041;-81
2021/11/11 11:13:06;;;;;;;17.40;6.22;;;29.10;72.10;;;;;;5061620;28;20061;-81
2021/11/11 11:15:33;;;;;;;27.85;6.03;;;28.00;74.50;;;;;;5055030;28;20018;-80
2021/11/11 11:17:59;;;;;;;20.73;6.68;;;27.20;76.60;;;;;;5067100;28;20031;-81
2021/11/11 11:20:27;;;;;;;18.80;7.20;;;26.60;78.50;;;;;;5072110;28;20520;-81
2021/11/11 11:23:25;;;;;;;18.52;7.55;;;26.10;80.20;;;;;;5076705;28;20442;-81
2021/11/11 11:26:03;;;;;;;16.75;6.97;;;25.60;81.70;;;;;;5072881;28;20024;-81
2021/11/11 11:28:33;;;;;;;13.52;7.82;;;25.30;83.10;;;;;;5070201;28;20029;-79
2021/11/11 11:31:03;;;;;;;17.42;7.28;;;25.00;84.20;;;;;;5059521;28;20113;-79
2021/11/11 11:33:41;;;;;;;13.18;6.82;;;24.70;85.70;;;;;;5060844;28;20621;-78
2021/11/11 11:36:08;;;;;;;15.25;7.82;;;24.40;86.70;;;;;;5068191;28;20032;-80
2021/11/11 11:38:43;;;;;;;20.23;7.15;;;24.10;88.10;;;;;;5060411;28;20025;-80
2021/11/11 11:41:37;;;;;;;11.80;7.00;;;23.70;89.90;;;;;;5066046;28;20048;-81
2021/11/11 11:44:21;;;;;;;20.77;7.50;;;23.50;90.30;;;;;;5054521;28;20024;-79
2021/11/11 11:47:04;;;;;;;14.30;8.18;;;23.30;90.90;;;;;;5058460;28;20051;-79
2021/11/11 11:49:30;;;;;;;23.05;8.02;;;23.10;91.20;;;;;;5066923;28;20029;-81
2021/11/11 11:51:56;;;;;;;17.25;8.52;;;22.90;92.00;;;;;;5064117;28;20033;-82
2021/11/11 11:55:06;;;;;;;13.55;8.13;;;22.60;92.60;;;;;;5069240;28;20062;-81
2021/11/11 11:57:19;;;;;;;16.98;8.25;;;22.50;93.10;;;;;;5055550;28;20029;-79
2021/11/11 11:59:51;;;;;;;19.02;7.78;;;22.30;93.70;;;;;;5060398;28;20025;-80
2021/11/11 12:05:07;;;;;;;15.03;8.93;;;22.10;94.40;;;;;;5070709;28;19909;-82
2021/11/11 12:40:05;;;;;;;14.85;9.30;;;20.90;99.60;;;;;;5058963;28;20081;-82
2021/11/11 12:42:40;;;;;;;18.40;10.02;;;20.80;99.90;;;;;;5063647;28;20112;-81
2021/11/11 12:45:41;;;;;;;15.02;9.00;;;20.80;99.90;;;;;;5073229;28;20017;-82
2021/11/11 12:48:10;;;;;;;24.10;8.82;;;20.80;99.90;;;;;;5055350;28;20028;-80
2021/11/11 12:50:41;;;;;;;17.70;9.27;;;20.70;99.90;;;;;;5068093;28;20044;-80
2021/11/11 12:53:19;;;;;;;20.17;9.10;;;20.60;99.90;;;;;;5070188;28;20037;-80
2021/11/11 12:55:55;;;;;;;16.63;9.27;;;20.40;99.90;;;;;;5054043;28;20024;-80
2021/11/11 12:58:37;;;;;;;28.05;11.60;;;20.30;99.90;;;;;;5061306;28;20017;-79
2021/11/11 13:01:12;;;;;;;26.25;10.43;;;20.10;99.90;;;;;;5052840;28;20044;-80
2021/11/11 13:03:47;;;;;;;19.13;10.05;;;20.00;99.90;;;;;;5065559;28;20021;-82
2021/11/11 13:06:14;;;;;;;14.18;9.73;;;20.00;99.90;;;;;;5070499;28;20023;-83
2021/11/11 13:08:42;;;;;;;30.30;10.10;;;20.00;99.90;;;;;;5067807;28;20508;-82
2021/11/11 13:11:10;;;;;;;21.92;9.95;;;19.90;99.90;;;;;;5061772;28;20116;-82
2021/11/11 13:13:36;;;;;;;18.90;10.57;;;19.90;99.90;;;;;;5058947;28;20123;-83
2021/11/11 13:16:19;;;;;;;29.08;9.77;;;19.80;99.90;;;;;;5061815;28;20127;-81
2021/11/11 13:18:48;;;;;;;19.25;11.30;;;19.80;99.90;;;;;;5065766;28;20053;-83
2021/11/11 13:21:21;;;;;;;22.00;11.15;;;19.70;99.90;;;;;;5058094;28;20040;-80
2021/11/11 13:24:24;;;;;;;20.35;10.50;;;19.60;99.90;;;;;;5074830;28;20091;-82
2021/11/11 14:03:11;;;;;;;17.60;9.68;;;18.50;99.90;;;;;;5064773;28;20024;-81
2021/11/11 15:04:07;;;;;;;17.55;10.73;;;17.50;99.90;;;;;;5054632;28;20032;-80
2021/11/11 16:04:11;;;;;;;18.27;11.35;;;15.70;99.90;;;;;;5073876;28;20012;-81
2021/11/11 16:20:26;;;;;;;25.67;13.43;;;15.50;99.90;;;;;;5059672;28;20074;-80
2021/11/11 16:26:03;;;;;;;27.30;13.98;;;15.50;99.90;;;;;;5064330;28;20099;-79
2021/11/11 16:28:28;;;;;;;44.25;17.92;;;15.50;99.90;;;;;;5063191;28;20120;-79
2021/11/11 16:30:54;;;;;;;33.50;18.08;;;15.50;99.90;;;;;;5079545;28;20540;-79
2021/11/11 16:33:21;;;;;;;31.60;15.57;;;15.50;99.90;;;;;;5083787;28;20081;-80
2021/11/11 16:35:47;;;;;;;40.42;18.70;;;15.40;99.90;;;;;;5073874;28;20025;-80